Terminal Aerodrome Forecast
Issued by NWS

Home | Current Version | Previous Version | Graphics & Text | Print | Product List | Glossary On
Versions: 1 2 3 4 5 6 7 8 9 10 11 12 13 14 15 16 17
742
FTUS43 KMPX 262320
TAFAXN
TAF
KAXN 262320Z 2700/2724 30015G24KT P6SM SKC
     FM270400 30012KT P6SM SKC
     FM271400 31015G24KT P6SM SKC
     FM271800 33013G21KT P6SM BKN050=

USA.gov is the U.S. government's official web portal to all federal, state and local government web resources and services.